createdAt,value
2017-09-18T00:00:22.596Z,8.65
2017-09-18T00:02:51.047Z,8.54
2017-09-18T00:05:19.512Z,8.52
2017-09-18T00:07:47.996Z,8.49
2017-09-18T00:10:16.480Z,8.51
2017-09-18T00:12:44.931Z,8.50
2017-09-18T00:15:14.135Z,8.50
2017-09-18T00:17:43.353Z,8.41
2017-09-18T00:20:11.775Z,8.33
2017-09-18T00:22:40.329Z,8.31
2017-09-18T00:25:08.763Z,8.36
2017-09-18T00:27:37.224Z,8.34
2017-09-18T00:30:05.649Z,8.26
2017-09-18T00:32:34.868Z,8.10
2017-09-18T00:35:03.304Z,8.08
2017-09-18T00:37:31.785Z,8.06
2017-09-18T00:40:00.980Z,8.13
2017-09-18T00:42:30.228Z,8.07
2017-09-18T00:44:58.684Z,8.07
2017-09-18T00:47:27.871Z,8.08
2017-09-18T00:49:56.319Z,7.96
2017-09-18T00:52:24.744Z,7.93
2017-09-18T00:54:53.961Z,7.99
2017-09-18T00:57:22.392Z,8.03
2017-09-18T00:59:50.841Z,8.01
2017-09-18T01:02:19.268Z,7.95
2017-09-18T01:04:47.724Z,7.85
2017-09-18T01:07:16.165Z,7.83
2017-09-18T01:09:44.656Z,7.84
2017-09-18T01:12:13.079Z,7.79
2017-09-18T01:14:41.536Z,7.73
2017-09-18T01:17:09.968Z,7.70
2017-09-18T01:19:39.179Z,7.72
2017-09-18T01:22:08.375Z,7.65
2017-09-18T01:24:37.691Z,7.66
2017-09-18T01:27:06.180Z,7.69
2017-09-18T01:29:34.664Z,7.71
2017-09-18T01:32:03.091Z,7.66
2017-09-18T01:34:31.627Z,7.71
2017-09-18T01:37:00.059Z,7.67
2017-09-18T01:39:28.488Z,7.65
2017-09-18T01:41:56.971Z,7.56
2017-09-18T01:44:25.400Z,7.61
2017-09-18T01:46:53.841Z,7.61
2017-09-18T01:49:22.272Z,7.53
2017-09-18T01:51:50.724Z,7.45
2017-09-18T01:54:19.157Z,7.47
2017-09-18T01:56:48.361Z,7.49
2017-09-18T01:59:17.551Z,7.43
2017-09-18T02:01:46.770Z,7.37
2017-09-18T02:04:15.196Z,7.39
2017-09-18T02:06:43.736Z,7.39
2017-09-18T02:09:12.216Z,7.36
2017-09-18T02:11:40.691Z,7.42
2017-09-18T02:14:09.111Z,7.46
2017-09-18T02:16:37.664Z,7.38
2017-09-18T02:19:06.083Z,7.41
2017-09-18T02:21:34.527Z,7.41
2017-09-18T02:24:03.003Z,7.40
2017-09-18T02:26:31.492Z,7.46
2017-09-18T02:28:59.910Z,7.43
2017-09-18T02:31:28.460Z,7.47
2017-09-18T02:33:56.887Z,7.46
2017-09-18T02:36:26.096Z,7.52
2017-09-18T02:38:55.293Z,7.60
2017-09-18T02:41:23.764Z,7.67
2017-09-18T02:43:52.187Z,7.69
2017-09-18T02:46:21.080Z,7.79
2017-09-18T02:48:49.567Z,7.74
2017-09-18T02:51:18.051Z,7.81
2017-09-18T02:53:46.500Z,7.88
2017-09-18T02:56:15.691Z,7.92
2017-09-18T02:58:44.207Z,7.98
2017-09-18T03:01:12.631Z,8.00
2017-09-18T03:03:41.075Z,8.00
2017-09-18T03:06:09.559Z,8.05
2017-09-18T03:08:38.039Z,8.13
2017-09-18T03:11:06.458Z,8.21
2017-09-18T03:13:34.903Z,8.28
2017-09-18T03:16:03.323Z,8.39
2017-09-18T03:18:31.776Z,8.46
2017-09-18T03:21:00.203Z,8.48
2017-09-18T03:23:28.647Z,8.53
2017-09-18T03:25:57.102Z,8.56
2017-09-18T03:28:25.586Z,8.50
2017-09-18T03:30:54.018Z,8.54
2017-09-18T03:33:23.972Z,8.60
2017-09-18T03:35:53.168Z,8.62
2017-09-18T03:38:22.371Z,8.63
2017-09-18T03:40:51.583Z,8.65
2017-09-18T03:43:20.031Z,8.63
2017-09-18T03:45:49.226Z,8.64
2017-09-18T03:48:17.679Z,8.63
2017-09-18T03:50:46.118Z,8.66
2017-09-18T03:53:14.611Z,8.69
2017-09-18T03:55:43.059Z,8.72
2017-09-18T03:58:12.247Z,8.75
2017-09-18T04:00:40.686Z,8.80
2017-09-18T04:03:09.106Z,8.79
2017-09-18T04:05:37.631Z,8.77
2017-09-18T04:08:06.057Z,8.79
2017-09-18T04:10:34.514Z,8.79
2017-09-18T04:13:02.979Z,8.85
2017-09-18T04:15:31.459Z,8.84
2017-09-18T04:17:59.888Z,8.88
2017-09-18T04:20:29.094Z,8.89
2017-09-18T04:22:58.284Z,8.86
2017-09-18T04:25:27.500Z,8.82
2017-09-18T04:27:56.019Z,8.85
2017-09-18T04:30:24.498Z,8.85
2017-09-18T04:32:52.923Z,8.88
2017-09-18T04:35:21.371Z,8.96
2017-09-18T04:37:49.799Z,9.02
2017-09-18T04:40:19.751Z,9.09
2017-09-18T04:42:48.959Z,9.13
2017-09-18T04:45:17.413Z,9.19
2017-09-18T04:47:46.599Z,9.15
2017-09-18T04:50:15.831Z,9.16
2017-09-18T04:52:44.319Z,9.20
2017-09-18T04:55:12.747Z,9.20
2017-09-18T04:57:41.952Z,9.14
2017-09-18T05:00:11.224Z,9.08
2017-09-18T05:02:39.671Z,9.04
2017-09-18T05:05:08.859Z,9.01
2017-09-18T05:07:38.071Z,9.00
2017-09-18T05:10:06.495Z,9.01
2017-09-18T05:12:34.939Z,9.02
2017-09-18T05:15:03.355Z,8.95
2017-09-18T05:17:31.809Z,8.94
2017-09-18T05:20:00.230Z,9.02
2017-09-18T05:22:28.679Z,9.01
2017-09-18T05:24:57.151Z,9.03
2017-09-18T05:27:25.627Z,9.01
2017-09-18T05:29:54.050Z,8.94
2017-09-18T05:32:22.496Z,8.95
2017-09-18T05:34:50.930Z,8.98
2017-09-18T05:37:20.143Z,8.97
2017-09-18T05:39:49.567Z,8.99
2017-09-18T05:42:18.764Z,9.01
2017-09-18T05:44:47.303Z,9.06
2017-09-18T05:47:15.747Z,9.00
2017-09-18T05:49:44.171Z,9.01
2017-09-18T05:52:13.419Z,9.08
2017-09-18T05:54:41.843Z,9.02
2017-09-18T05:57:10.283Z,9.03
2017-09-18T05:59:38.706Z,9.07
2017-09-18T06:02:07.151Z,9.03
2017-09-18T06:04:35.627Z,9.21
2017-09-18T06:07:04.080Z,9.32
2017-09-18T06:09:33.276Z,9.42
2017-09-18T06:12:02.496Z,9.48
2017-09-18T06:14:30.927Z,9.53
2017-09-18T06:16:59.350Z,9.56
2017-09-18T06:19:28.671Z,9.64
2017-09-18T06:21:57.147Z,9.73
2017-09-18T06:24:25.630Z,9.70
2017-09-18T06:26:54.115Z,9.75
2017-09-18T06:29:22.592Z,9.63
2017-09-18T06:31:51.060Z,9.63
2017-09-18T06:34:20.271Z,9.83
2017-09-18T06:36:48.699Z,10.03
2017-09-18T06:39:17.144Z,9.98
2017-09-18T06:41:45.562Z,9.93
2017-09-18T06:44:14.108Z,10.20
2017-09-18T06:46:42.588Z,10.21
2017-09-18T06:49:11.073Z,10.34
2017-09-18T06:51:39.500Z,10.35
2017-09-18T06:54:07.943Z,10.48
2017-09-18T06:56:36.411Z,10.46
2017-09-18T06:59:04.852Z,10.70
2017-09-18T07:01:34.147Z,10.76
2017-09-18T07:04:02.607Z,10.86
2017-09-18T07:06:31.036Z,10.88
2017-09-18T07:09:00.246Z,11.04
2017-09-18T07:11:28.675Z,11.12
2017-09-18T07:13:57.219Z,11.24
2017-09-18T07:16:25.652Z,11.06
2017-09-18T07:18:54.106Z,11.25
2017-09-18T07:21:22.535Z,11.40
2017-09-18T07:23:51.776Z,11.57
2017-09-18T07:26:20.247Z,11.59
2017-09-18T07:28:48.680Z,11.62
2017-09-18T07:31:17.127Z,11.61
2017-09-18T07:33:45.561Z,11.68
2017-09-18T07:36:14.780Z,11.82
2017-09-18T07:38:43.266Z,11.75
2017-09-18T07:41:11.711Z,11.77
2017-09-18T07:43:40.235Z,11.92
2017-09-18T07:46:08.734Z,12.13
2017-09-18T07:48:37.168Z,12.09
2017-09-18T07:51:06.503Z,12.14
2017-09-18T07:53:34.932Z,12.21
2017-09-18T07:56:03.378Z,12.35
2017-09-18T07:58:31.844Z,12.45
2017-09-18T08:01:02.662Z,12.55
2017-09-18T08:03:31.883Z,12.76
2017-09-18T08:06:00.332Z,12.95
2017-09-18T08:08:29.522Z,12.98
2017-09-18T08:10:57.975Z,13.06
2017-09-18T08:13:26.429Z,13.09
2017-09-18T08:15:54.866Z,13.18
2017-09-18T08:18:23.383Z,13.28
2017-09-18T08:20:51.828Z,13.27
2017-09-18T08:23:20.352Z,13.23
2017-09-18T08:25:48.811Z,13.45
2017-09-18T08:28:18.007Z,13.58
2017-09-18T08:30:47.228Z,13.55
2017-09-18T08:33:15.711Z,13.58
2017-09-18T08:35:44.195Z,13.75
2017-09-18T08:38:12.678Z,13.88
2017-09-18T08:40:41.159Z,13.90
2017-09-18T08:43:09.611Z,13.86
2017-09-18T08:45:38.843Z,14.09
2017-09-18T08:48:07.286Z,14.17
2017-09-18T08:50:36.511Z,14.00
2017-09-18T08:53:05.003Z,13.94
2017-09-18T08:55:33.446Z,14.13
2017-09-18T08:58:01.920Z,14.03
2017-09-18T09:00:30.351Z,14.17
2017-09-18T09:02:58.800Z,14.34
2017-09-18T09:05:27.995Z,14.36
2017-09-18T09:07:57.224Z,14.33
2017-09-18T09:10:25.651Z,14.50
2017-09-18T09:12:54.103Z,14.55
2017-09-18T09:15:22.530Z,14.51
2017-09-18T09:17:51.004Z,14.68
2017-09-18T09:20:19.430Z,14.70
2017-09-18T09:22:47.850Z,15.02
2017-09-18T09:25:16.407Z,14.87
2017-09-18T09:27:44.884Z,14.99
2017-09-18T09:30:13.342Z,15.15
2017-09-18T09:32:42.575Z,15.17
2017-09-18T09:35:11.038Z,15.17
2017-09-18T09:37:39.523Z,15.26
2017-09-18T09:40:07.981Z,15.46
2017-09-18T09:42:37.175Z,15.48
2017-09-18T09:45:06.391Z,15.60
2017-09-18T09:47:34.892Z,15.57
2017-09-18T09:50:03.335Z,15.74
2017-09-18T09:52:32.582Z,15.79
2017-09-18T09:55:01.040Z,15.78
2017-09-18T09:57:29.532Z,16.02
2017-09-18T09:59:57.983Z,16.21
2017-09-18T10:02:27.193Z,16.29
2017-09-18T10:04:56.410Z,16.51
2017-09-18T10:07:24.878Z,16.59
2017-09-18T10:09:53.376Z,16.78
2017-09-18T10:12:21.873Z,16.56
2017-09-18T10:14:50.333Z,16.40
2017-09-18T10:17:18.765Z,16.22
2017-09-18T10:19:47.295Z,16.43
2017-09-18T10:22:15.721Z,16.83
2017-09-18T10:24:44.168Z,16.85
2017-09-18T10:27:12.615Z,17.19
2017-09-18T10:29:41.820Z,17.41
2017-09-18T10:32:11.139Z,17.52
2017-09-18T10:34:39.555Z,17.62
2017-09-18T10:37:08.109Z,17.56
2017-09-18T10:39:36.587Z,17.33
2017-09-18T10:42:05.075Z,17.65
2017-09-18T10:44:33.494Z,17.90
2017-09-18T10:47:01.939Z,17.71
2017-09-18T10:49:30.369Z,17.88
2017-09-18T10:51:58.819Z,17.96
2017-09-18T10:54:27.280Z,18.09
2017-09-18T10:56:55.736Z,17.77
2017-09-18T10:59:24.955Z,17.50
2017-09-18T11:01:53.420Z,17.44
2017-09-18T11:04:22.617Z,17.23
2017-09-18T11:06:51.943Z,17.36
2017-09-18T11:09:20.392Z,17.10
2017-09-18T11:11:49.616Z,17.07
2017-09-18T11:14:18.113Z,17.46
2017-09-18T11:16:46.604Z,17.75
2017-09-18T11:19:15.028Z,18.03
2017-09-18T11:21:43.489Z,18.27
2017-09-18T11:24:11.911Z,18.02
2017-09-18T11:26:41.114Z,18.13
2017-09-18T11:29:10.299Z,17.74
2017-09-18T11:31:39.503Z,17.74
2017-09-18T11:34:08.728Z,17.73
2017-09-18T11:36:37.176Z,17.79
2017-09-18T11:39:06.363Z,17.68
2017-09-18T11:41:34.820Z,17.69
2017-09-18T11:44:03.239Z,17.93
2017-09-18T11:46:32.436Z,18.04
2017-09-18T11:49:01.663Z,18.08
2017-09-18T11:51:30.084Z,18.12
2017-09-18T11:53:58.533Z,18.12
2017-09-18T11:56:27.027Z,18.07
2017-09-18T11:58:55.487Z,18.06
2017-09-18T12:01:23.983Z,18.08
2017-09-18T12:03:52.419Z,17.91
2017-09-18T12:06:22.357Z,17.97
2017-09-18T12:08:51.571Z,18.06
2017-09-18T12:11:19.996Z,18.20
2017-09-18T12:13:48.531Z,18.15
2017-09-18T12:16:16.957Z,17.89
2017-09-18T12:18:45.500Z,17.97
2017-09-18T12:21:13.978Z,18.06
2017-09-18T12:23:42.420Z,18.06
2017-09-18T12:26:10.939Z,17.97
2017-09-18T12:28:39.445Z,18.05
2017-09-18T12:31:07.928Z,18.10
2017-09-18T12:33:36.372Z,18.12
2017-09-18T12:36:05.592Z,18.08
2017-09-18T12:38:34.035Z,18.12
2017-09-18T12:41:03.219Z,18.14
2017-09-18T12:43:31.666Z,18.18
2017-09-18T12:46:00.100Z,18.05
2017-09-18T12:48:29.311Z,18.34
2017-09-18T12:50:58.503Z,18.47
2017-09-18T12:53:27.747Z,18.36
2017-09-18T12:55:56.167Z,18.40
2017-09-18T12:58:25.428Z,18.68
2017-09-18T13:00:53.910Z,18.67
2017-09-18T13:03:22.377Z,18.72
2017-09-18T13:05:50.859Z,18.69
2017-09-18T13:08:19.299Z,18.66
2017-09-18T13:10:47.734Z,18.64
2017-09-18T13:13:16.199Z,18.73
2017-09-18T13:15:44.629Z,18.42
2017-09-18T13:18:13.051Z,18.47
2017-09-18T13:20:41.488Z,18.58
2017-09-18T13:23:10.028Z,18.47
2017-09-18T13:25:38.476Z,18.11
2017-09-18T13:28:07.672Z,17.96
2017-09-18T13:30:36.879Z,17.81
2017-09-18T13:33:06.067Z,17.78
2017-09-18T13:35:34.506Z,17.99
2017-09-18T13:38:02.958Z,18.24
2017-09-18T13:40:31.404Z,18.23
2017-09-18T13:42:59.828Z,18.00
2017-09-18T13:45:28.327Z,17.94
2017-09-18T13:47:56.797Z,17.83
2017-09-18T13:50:25.280Z,17.77
2017-09-18T13:52:53.695Z,18.05
2017-09-18T13:55:22.231Z,18.37
2017-09-18T13:57:50.650Z,18.50
2017-09-18T14:00:19.077Z,18.66
2017-09-18T14:02:48.397Z,18.82
2017-09-18T14:05:16.887Z,19.00
2017-09-18T14:07:45.342Z,18.80
2017-09-18T14:10:14.533Z,18.85
2017-09-18T14:12:43.749Z,18.65
2017-09-18T14:15:12.944Z,18.55
2017-09-18T14:17:42.266Z,18.42
2017-09-18T14:20:10.687Z,18.66
2017-09-18T14:22:39.131Z,18.68
2017-09-18T14:25:07.560Z,18.77
2017-09-18T14:27:36.007Z,18.77
2017-09-18T14:30:04.436Z,18.87
2017-09-18T14:32:33.652Z,18.97
2017-09-18T14:35:02.852Z,18.85
2017-09-18T14:37:32.160Z,18.91
2017-09-18T14:40:00.580Z,19.15
2017-09-18T14:42:29.022Z,19.26
2017-09-18T14:44:57.443Z,19.30
2017-09-18T14:47:25.883Z,19.32
2017-09-18T14:49:54.303Z,18.94
2017-09-18T14:52:22.852Z,18.60
2017-09-18T14:54:51.280Z,18.58
2017-09-18T14:57:19.710Z,18.39
2017-09-18T14:59:48.192Z,18.22
2017-09-18T15:02:16.644Z,18.02
2017-09-18T15:04:45.885Z,17.84
2017-09-18T15:07:14.356Z,17.60
2017-09-18T15:09:42.835Z,17.52
2017-09-18T15:12:11.326Z,17.45
2017-09-18T15:14:39.747Z,17.29
2017-09-18T15:17:08.216Z,17.25
2017-09-18T15:19:36.639Z,17.26
2017-09-18T15:22:05.823Z,17.17
2017-09-18T15:24:34.354Z,17.13
2017-09-18T15:27:02.787Z,17.03
2017-09-18T15:29:31.231Z,17.10
2017-09-18T15:32:00.597Z,17.19
2017-09-18T15:34:29.800Z,17.26
2017-09-18T15:36:58.987Z,17.12
2017-09-18T15:39:28.187Z,17.11
2017-09-18T15:41:57.380Z,17.14
2017-09-18T15:44:26.596Z,17.01
2017-09-18T15:46:55.082Z,17.09
2017-09-18T15:49:23.607Z,17.12
2017-09-18T15:51:52.048Z,17.13
2017-09-18T15:54:20.501Z,17.17
2017-09-18T15:56:48.923Z,17.08
2017-09-18T15:59:17.367Z,17.05
2017-09-18T16:01:46.591Z,16.92
2017-09-18T16:04:15.040Z,16.87
2017-09-18T16:06:43.559Z,16.81
2017-09-18T16:09:12.032Z,16.76
2017-09-18T16:11:40.523Z,16.71
2017-09-18T16:14:08.943Z,16.57
2017-09-18T16:16:37.483Z,16.54
2017-09-18T16:19:05.976Z,16.51
2017-09-18T16:21:34.415Z,16.46
2017-09-18T16:24:02.938Z,16.45
2017-09-18T16:26:31.380Z,16.41
2017-09-18T16:28:59.812Z,16.39
2017-09-18T16:31:28.281Z,16.30
2017-09-18T16:33:56.708Z,16.23
2017-09-18T16:36:25.235Z,16.13
2017-09-18T16:38:53.659Z,16.08
2017-09-18T16:41:22.107Z,16.02
2017-09-18T16:43:50.532Z,15.90
2017-09-18T16:46:19.078Z,15.87
2017-09-18T16:48:47.552Z,15.80
2017-09-18T16:51:16.000Z,15.73
2017-09-18T16:53:45.192Z,15.71
2017-09-18T16:56:13.717Z,15.64
2017-09-18T16:58:42.196Z,15.52
2017-09-18T17:01:10.672Z,15.46
2017-09-18T17:03:39.091Z,15.42
2017-09-18T17:06:07.645Z,15.36
2017-09-18T17:08:36.063Z,15.30
2017-09-18T17:11:04.503Z,15.26
2017-09-18T17:13:32.933Z,15.17
2017-09-18T17:16:01.380Z,15.07
2017-09-18T17:18:29.803Z,15.02
2017-09-18T17:20:58.317Z,14.91
2017-09-18T17:23:26.812Z,14.84
2017-09-18T17:25:55.267Z,14.69
2017-09-18T17:28:24.508Z,14.55
2017-09-18T17:30:52.934Z,14.48
2017-09-18T17:33:21.465Z,14.43
2017-09-18T17:35:49.940Z,14.36
2017-09-18T17:38:18.388Z,14.25
2017-09-18T17:40:47.619Z,14.21
2017-09-18T17:43:16.104Z,14.13
2017-09-18T17:45:44.548Z,14.14
2017-09-18T17:48:13.764Z,14.12
2017-09-18T17:50:42.970Z,14.10
2017-09-18T17:53:11.464Z,14.01
2017-09-18T17:55:39.889Z,13.86
2017-09-18T17:58:08.429Z,13.85
2017-09-18T18:00:36.903Z,13.77
2017-09-18T18:03:05.352Z,13.80
2017-09-18T18:05:33.876Z,13.75
2017-09-18T18:08:02.329Z,13.78
2017-09-18T18:10:31.555Z,13.76
2017-09-18T18:13:00.052Z,13.75
2017-09-18T18:15:28.520Z,13.74
2017-09-18T18:17:56.983Z,13.71
2017-09-18T18:20:26.176Z,13.66
2017-09-18T18:22:55.358Z,13.65
2017-09-18T18:25:23.884Z,13.39
2017-09-18T18:27:52.363Z,13.22
2017-09-18T18:30:20.814Z,13.20
2017-09-18T18:32:50.054Z,13.21
2017-09-18T18:35:18.500Z,13.18
2017-09-18T18:37:47.686Z,13.02
2017-09-18T18:40:16.913Z,12.98
2017-09-18T18:42:45.344Z,13.00
2017-09-18T18:45:13.892Z,12.99
2017-09-18T18:47:42.323Z,13.01
2017-09-18T18:50:10.768Z,12.91
2017-09-18T18:52:39.201Z,12.92
2017-09-18T18:55:08.442Z,12.86
2017-09-18T18:57:36.876Z,12.79
2017-09-18T19:00:06.096Z,12.66
2017-09-18T19:02:34.627Z,12.64
2017-09-18T19:05:03.169Z,12.61
2017-09-18T19:07:31.592Z,12.61
2017-09-18T19:10:00.036Z,12.47
2017-09-18T19:12:28.493Z,12.38
2017-09-18T19:14:57.725Z,12.43
2017-09-18T19:17:26.194Z,12.29
2017-09-18T19:19:54.627Z,12.30
2017-09-18T19:22:23.071Z,12.33
2017-09-18T19:24:51.509Z,12.28
2017-09-18T19:27:20.843Z,12.24
2017-09-18T19:29:49.271Z,12.26
2017-09-18T19:32:17.722Z,12.24
2017-09-18T19:34:46.276Z,12.25
2017-09-18T19:37:15.487Z,12.12
2017-09-18T19:39:43.963Z,12.16
2017-09-18T19:42:12.405Z,12.08
2017-09-18T19:44:40.940Z,11.99
2017-09-18T19:47:09.383Z,11.96
2017-09-18T19:49:38.579Z,11.96
2017-09-18T19:52:07.815Z,11.88
2017-09-18T19:54:36.248Z,11.84
2017-09-18T19:57:04.705Z,11.89
2017-09-18T19:59:33.161Z,11.88
2017-09-18T20:02:01.743Z,11.77
2017-09-18T20:04:30.223Z,11.73
2017-09-18T20:06:58.652Z,11.73
2017-09-18T20:09:27.103Z,11.64
2017-09-18T20:11:55.535Z,11.58
2017-09-18T20:14:24.752Z,11.54
2017-09-18T20:16:53.959Z,11.50
2017-09-18T20:19:22.407Z,11.50
2017-09-18T20:21:50.840Z,11.45
2017-09-18T20:24:19.312Z,11.44
2017-09-18T20:26:47.788Z,11.30
2017-09-18T20:29:16.235Z,11.30
2017-09-18T20:31:44.664Z,11.39
2017-09-18T20:34:13.108Z,11.42
2017-09-18T20:36:42.454Z,11.42
2017-09-18T20:39:10.903Z,11.36
2017-09-18T20:41:40.092Z,11.41
2017-09-18T20:44:09.316Z,11.42
2017-09-18T20:46:37.804Z,11.42
2017-09-18T20:49:06.256Z,11.39
2017-09-18T20:51:35.447Z,11.35
2017-09-18T20:54:04.883Z,11.25
2017-09-18T20:56:33.372Z,11.17
2017-09-18T20:59:01.815Z,11.13
2017-09-18T21:01:31.048Z,11.16
2017-09-18T21:03:59.538Z,11.18
2017-09-18T21:06:27.964Z,11.14
2017-09-18T21:08:56.509Z,11.15
2017-09-18T21:11:24.937Z,11.13
2017-09-18T21:13:54.176Z,11.14
2017-09-18T21:16:22.640Z,11.09
2017-09-18T21:18:51.876Z,11.10
2017-09-18T21:21:20.307Z,11.05
2017-09-18T21:23:49.500Z,11.06
2017-09-18T21:26:18.709Z,11.06
2017-09-18T21:28:47.943Z,11.03
2017-09-18T21:31:16.407Z,11.04
2017-09-18T21:33:44.897Z,11.02
2017-09-18T21:36:13.348Z,10.98
2017-09-18T21:38:42.544Z,10.97
2017-09-18T21:41:11.752Z,10.94
2017-09-18T21:43:40.950Z,10.86
2017-09-18T21:46:10.163Z,10.87
2017-09-18T21:48:38.582Z,10.83
2017-09-18T21:51:07.029Z,10.82
2017-09-18T21:53:35.456Z,10.73
2017-09-18T21:56:03.896Z,10.64
2017-09-18T21:58:32.320Z,10.58
2017-09-18T22:01:00.775Z,10.55
2017-09-18T22:03:29.195Z,10.46
2017-09-18T22:05:57.651Z,10.48
2017-09-18T22:08:26.075Z,10.51
2017-09-18T22:10:55.288Z,10.46
2017-09-18T22:13:23.774Z,10.44
2017-09-18T22:15:52.269Z,10.40
2017-09-18T22:18:20.696Z,10.40
2017-09-18T22:20:49.229Z,10.42
2017-09-18T22:23:17.715Z,10.40
2017-09-18T22:25:46.155Z,10.38
2017-09-18T22:28:14.587Z,10.39
2017-09-18T22:30:43.031Z,10.40
2017-09-18T22:33:12.271Z,10.37
2017-09-18T22:35:40.715Z,10.29
2017-09-18T22:38:09.905Z,10.23
2017-09-18T22:40:39.133Z,10.17
2017-09-18T22:43:07.555Z,10.14
2017-09-18T22:45:35.991Z,10.17
2017-09-18T22:48:04.494Z,10.19
2017-09-18T22:50:32.928Z,10.21
2017-09-18T22:53:02.142Z,10.21
2017-09-18T22:55:30.611Z,10.20
2017-09-18T22:57:59.839Z,10.20
2017-09-18T23:00:28.316Z,10.10
2017-09-18T23:02:56.805Z,10.07
2017-09-18T23:05:25.227Z,10.00
2017-09-18T23:07:53.681Z,10.01
2017-09-18T23:10:22.157Z,10.08
2017-09-18T23:12:50.604Z,10.04
2017-09-18T23:15:19.800Z,10.05
2017-09-18T23:17:49.022Z,10.11
2017-09-18T23:20:17.447Z,10.10
2017-09-18T23:22:45.987Z,10.15
2017-09-18T23:25:14.471Z,10.17
2017-09-18T23:27:42.955Z,10.16
2017-09-18T23:30:11.380Z,10.12
2017-09-18T23:32:39.841Z,10.12
2017-09-18T23:35:08.259Z,10.13
2017-09-18T23:37:36.708Z,10.07
2017-09-18T23:40:05.131Z,10.05
2017-09-18T23:42:34.335Z,9.98
2017-09-18T23:45:03.523Z,9.92
2017-09-18T23:47:32.729Z,9.93
2017-09-18T23:50:02.340Z,9.93
2017-09-18T23:52:31.660Z,9.92
2017-09-18T23:55:00.148Z,9.94
2017-09-18T23:57:28.599Z,9.98
2017-09-18T23:59:57.822Z,10.00
